Time;durP1;ratioP1;P1;durP2;ratioP2;P2;SDS_P1;SDS_P2;PMS_P1;PMS_P2;Temp;Humidity;BMP_temperature;BMP_pressure;BME280_temperature;BME280_humidity;BME280_pressure;Samples;Min_cycle;Max_cycle;Signal;HPM_P1;HPM_P2
2023/03/12 00:04:50;;;;;;;4.13;2.33;;;;;;;;;;10191382;29;20063;-77
2023/03/12 00:09:54;;;;;;;3.38;2.25;;;;;;;;;;10197855;29;20042;-77
2023/03/12 00:15:00;;;;;;;4.47;2.70;;;;;;;;;;10197666;29;20503;-77
2023/03/12 00:20:05;;;;;;;5.95;2.65;;;;;;;;;;10196614;29;20416;-77
2023/03/12 00:25:13;;;;;;;4.25;2.35;;;;;;;;;;10197107;29;20499;-76
2023/03/12 00:30:19;;;;;;;5.72;2.70;;;;;;;;;;10192461;29;20051;-77
2023/03/12 00:35:23;;;;;;;4.47;1.85;;;;;;;;;;10196635;29;20091;-77
2023/03/12 00:40:26;;;;;;;1.98;1.27;;;;;;;;;;10195565;29;20048;-77
2023/03/12 00:45:31;;;;;;;1.95;1.20;;;;;;;;;;10179336;29;20054;-77
2023/03/12 00:50:35;;;;;;;4.63;1.20;;;;;;;;;;10194735;29;20559;-77
2023/03/12 00:55:39;;;;;;;1.48;1.10;;;;;;;;;;10177606;29;20040;-77
2023/03/12 01:00:44;;;;;;;2.53;1.30;;;;;;;;;;10194251;29;20649;-77
2023/03/12 01:05:52;;;;;;;2.17;1.10;;;;;;;;;;10188454;29;20070;-77
2023/03/12 01:10:56;;;;;;;2.35;1.40;;;;;;;;;;10178154;29;20039;-77
2023/03/12 01:16:01;;;;;;;2.97;1.88;;;;;;;;;;10178712;29;21951;-77
2023/03/12 01:21:05;;;;;;;3.05;1.80;;;;;;;;;;10194498;29;20039;-77
2023/03/12 01:26:08;;;;;;;3.15;1.60;;;;;;;;;;10193782;29;20076;-77
2023/03/12 01:31:15;;;;;;;3.67;2.13;;;;;;;;;;10177428;29;20055;-77
2023/03/12 01:36:20;;;;;;;3.60;2.00;;;;;;;;;;10194867;29;20054;-77
2023/03/12 01:41:27;;;;;;;5.35;2.40;;;;;;;;;;10194216;29;20044;-78
2023/03/12 01:46:34;;;;;;;3.85;2.13;;;;;;;;;;10177275;29;20482;-77
2023/03/12 01:51:45;;;;;;;4.18;2.38;;;;;;;;;;10176129;29;20124;-78
2023/03/12 01:56:49;;;;;;;3.13;1.40;;;;;;;;;;10175176;29;20047;-77
2023/03/12 02:01:55;;;;;;;1.50;1.02;;;;;;;;;;10176250;29;20071;-78
2023/03/12 02:07:02;;;;;;;2.15;1.52;;;;;;;;;;10176239;29;20474;-78
2023/03/12 02:12:07;;;;;;;1.92;1.10;;;;;;;;;;10176333;29;20081;-77
2023/03/12 02:17:12;;;;;;;2.08;0.90;;;;;;;;;;10176324;29;20042;-78
2023/03/12 02:22:16;;;;;;;2.05;1.10;;;;;;;;;;10192702;29;20099;-77
2023/03/12 02:27:23;;;;;;;2.55;1.00;;;;;;;;;;10190407;29;20066;-77
2023/03/12 02:32:27;;;;;;;;;;;;;;;;;;10176457;29;20132;-77
2023/03/12 02:37:31;;;;;;;1.17;0.85;;;;;;;;;;10192459;29;20402;-77
2023/03/12 02:42:36;;;;;;;1.60;0.77;;;;;;;;;;10173746;29;20548;-77
2023/03/12 02:47:40;;;;;;;0.80;0.70;;;;;;;;;;10154398;29;20047;-78
2023/03/12 02:52:43;;;;;;;1.23;1.00;;;;;;;;;;10156295;29;20054;-77
2023/03/12 02:57:53;;;;;;;2.67;1.10;;;;;;;;;;10155616;29;20044;-77
2023/03/12 03:02:58;;;;;;;3.55;1.20;;;;;;;;;;10163650;29;20063;-78
2023/03/12 03:08:01;;;;;;;2.10;0.98;;;;;;;;;;10167750;29;20052;-78
2023/03/12 03:13:07;;;;;;;1.38;0.80;;;;;;;;;;10152897;29;20649;-77
2023/03/12 03:18:10;;;;;;;1.25;0.90;;;;;;;;;;10158245;29;20142;-77
2023/03/12 03:23:14;;;;;;;1.92;1.02;;;;;;;;;;10180662;29;20032;-78
2023/03/12 03:28:20;;;;;;;2.47;0.85;;;;;;;;;;10170222;29;20060;-77
2023/03/12 03:33:23;;;;;;;1.15;0.90;;;;;;;;;;10170408;29;20036;-77
2023/03/12 03:38:28;;;;;;;1.70;0.93;;;;;;;;;;10169813;29;20389;-77
2023/03/12 03:43:34;;;;;;;1.25;0.73;;;;;;;;;;10185928;29;20051;-77
2023/03/12 03:48:40;;;;;;;1.73;1.10;;;;;;;;;;10148039;29;20045;-78
2023/03/12 03:53:45;;;;;;;0.90;0.82;;;;;;;;;;10168738;29;20039;-78
2023/03/12 03:58:54;;;;;;;2.33;0.73;;;;;;;;;;10150073;29;20123;-78
2023/03/12 04:03:58;;;;;;;1.08;0.70;;;;;;;;;;10187789;29;20068;-78
2023/03/12 04:09:03;;;;;;;1.33;1.00;;;;;;;;;;10172133;29;20123;-78
2023/03/12 04:14:10;;;;;;;1.53;0.80;;;;;;;;;;10176739;29;20040;-78
2023/03/12 04:19:16;;;;;;;1.65;0.80;;;;;;;;;;10156963;29;20059;-78
2023/03/12 04:24:20;;;;;;;2.50;0.82;;;;;;;;;;10206606;23;20051;-78
2023/03/12 04:29:26;;;;;;;1.35;0.98;;;;;;;;;;10186908;29;20079;-77
2023/03/12 04:34:31;;;;;;;0.68;0.60;;;;;;;;;;10185395;29;20047;-78
2023/03/12 04:39:35;;;;;;;1.42;0.80;;;;;;;;;;10174410;29;20480;-78
2023/03/12 04:44:41;;;;;;;1.55;1.02;;;;;;;;;;10191689;29;20036;-78
2023/03/12 04:49:45;;;;;;;1.03;0.90;;;;;;;;;;10159140;29;20039;-78
2023/03/12 04:54:51;;;;;;;0.70;0.70;;;;;;;;;;10168113;29;20051;-78
2023/03/12 04:59:59;;;;;;;1.48;0.82;;;;;;;;;;10166427;29;20078;-79
2023/03/12 05:05:07;;;;;;;0.73;0.73;;;;;;;;;;10177826;29;20126;-78
2023/03/12 05:10:11;;;;;;;5.22;1.30;;;;;;;;;;10178822;29;20543;-78
2023/03/12 05:15:17;;;;;;;3.50;1.27;;;;;;;;;;10178271;29;20040;-78
2023/03/12 05:20:21;;;;;;;5.80;1.40;;;;;;;;;;10178576;29;20047;-78
2023/03/12 05:25:30;;;;;;;1.55;0.93;;;;;;;;;;10194807;29;20122;-78
2023/03/12 05:30:35;;;;;;;1.00;0.90;;;;;;;;;;10194769;29;20040;-78
2023/03/12 05:35:46;;;;;;;1.10;0.85;;;;;;;;;;10194560;29;20405;-78
2023/03/12 05:40:54;;;;;;;1.02;0.73;;;;;;;;;;10194988;29;20044;-78
2023/03/12 05:46:28;;;;;;;1.13;0.90;;;;;;;;;;10175531;29;20064;-78
2023/03/12 05:51:47;;;;;;;2.95;0.80;;;;;;;;;;10180772;29;20095;-78
2023/03/12 05:57:27;;;;;;;1.70;0.80;;;;;;;;;;10179303;29;20048;-78
2023/03/12 06:03:14;;;;;;;0.75;0.70;;;;;;;;;;10186295;29;20043;-79
2023/03/12 06:09:01;;;;;;;0.60;0.60;;;;;;;;;;10167264;29;20054;-79
2023/03/12 06:22:11;;;;;;;3.78;0.90;;;;;;;;;;10108742;29;20331;-79
2023/03/12 06:27:48;;;;;;;2.22;0.85;;;;;;;;;;10138318;29;20556;-79
2023/03/12 06:40:38;;;;;;;2.47;0.88;;;;;;;;;;10250951;23;20745;-82
2023/03/12 06:45:43;;;;;;;1.75;1.00;;;;;;;;;;10201396;29;20047;-83
2023/03/12 06:50:47;;;;;;;1.10;0.90;;;;;;;;;;10202007;29;20051;-82
2023/03/12 06:55:51;;;;;;;0.93;0.80;;;;;;;;;;10184405;29;20769;-84
2023/03/12 07:00:56;;;;;;;2.63;1.02;;;;;;;;;;10188110;29;20131;-82
2023/03/12 07:06:00;;;;;;;2.23;1.20;;;;;;;;;;10188902;29;20397;-84
2023/03/12 07:11:03;;;;;;;2.92;1.40;;;;;;;;;;10180311;29;20151;-83
2023/03/12 07:16:09;;;;;;;1.60;1.10;;;;;;;;;;10193010;29;20164;-82
2023/03/12 07:21:12;;;;;;;2.35;1.20;;;;;;;;;;10181182;29;20452;-82
2023/03/12 07:26:17;;;;;;;1.45;0.88;;;;;;;;;;10199682;29;20036;-82
2023/03/12 07:31:21;;;;;;;2.78;1.00;;;;;;;;;;10215050;29;20396;-84
2023/03/12 07:36:25;;;;;;;2.10;1.20;;;;;;;;;;10199331;28;20091;-82
2023/03/12 07:41:29;;;;;;;2.80;1.25;;;;;;;;;;10206956;29;20039;-84
2023/03/12 07:46:34;;;;;;;3.28;1.55;;;;;;;;;;10190688;29;20036;-83
2023/03/12 07:51:37;;;;;;;2.13;1.33;;;;;;;;;;10221165;29;20051;-84
2023/03/12 07:56:40;;;;;;;1.30;0.90;;;;;;;;;;10203039;29;20040;-81
2023/03/12 08:01:45;;;;;;;1.50;1.20;;;;;;;;;;10210723;29;20443;-81
2023/03/12 08:06:49;;;;;;;2.22;1.38;;;;;;;;;;10228140;29;20463;-81
2023/03/12 08:11:53;;;;;;;2.53;1.55;;;;;;;;;;10205598;29;20115;-81
2023/03/12 08:16:58;;;;;;;2.17;1.88;;;;;;;;;;10179603;29;20044;-80
2023/03/12 08:22:01;;;;;;;4.43;2.85;;;;;;;;;;10192649;29;20072;-80
2023/03/12 08:27:05;;;;;;;2.90;2.00;;;;;;;;;;10188760;28;20047;-81
2023/03/12 08:32:10;;;;;;;2.47;1.60;;;;;;;;;;10169905;29;20494;-81
2023/03/12 08:37:14;;;;;;;4.23;2.30;;;;;;;;;;10183926;29;20062;-81
2023/03/12 08:42:22;;;;;;;3.00;2.10;;;;;;;;;;10155749;29;20618;-81
2023/03/12 08:47:27;;;;;;;3.13;1.75;;;;;;;;;;10152892;29;20279;-80
2023/03/12 08:52:30;;;;;;;4.20;1.63;;;;;;;;;;10154809;29;20141;-81
2023/03/12 08:57:34;;;;;;;3.80;1.88;;;;;;;;;;10170147;29;20496;-80
2023/03/12 09:02:39;;;;;;;3.92;2.45;;;;;;;;;;10190748;29;20043;-82
2023/03/12 09:07:43;;;;;;;2.40;2.10;;;;;;;;;;10172477;29;20043;-82
2023/03/12 09:12:46;;;;;;;1.63;1.52;;;;;;;;;;10172650;29;20073;-83
2023/03/12 09:17:52;;;;;;;1.77;1.67;;;;;;;;;;10183610;29;20044;-84
2023/03/12 09:22:56;;;;;;;1.38;1.13;;;;;;;;;;10190103;29;20046;-83
2023/03/12 09:28:01;;;;;;;2.90;1.80;;;;;;;;;;10147772;29;20135;-83
2023/03/12 09:33:06;;;;;;;1.52;1.30;;;;;;;;;;10157566;29;20046;-82
2023/03/12 09:38:13;;;;;;;2.05;1.30;;;;;;;;;;10154137;29;20055;-85
2023/03/12 09:43:24;;;;;;;1.25;1.15;;;;;;;;;;10197183;23;20062;-82
2023/03/12 09:48:33;;;;;;;2.33;1.73;;;;;;;;;;10209677;28;20047;-81
2023/03/12 09:53:40;;;;;;;2.15;1.60;;;;;;;;;;10209565;28;20558;-81
2023/03/12 09:58:47;;;;;;;2.95;1.70;;;;;;;;;;10235353;28;20143;-81
2023/03/12 10:04:10;;;;;;;2.47;0.95;;;;;;;;;;10219212;28;20051;-82
2023/03/12 10:09:29;;;;;;;2.05;1.70;;;;;;;;;;10211333;28;20410;-82
2023/03/12 10:14:43;;;;;;;2.00;1.45;;;;;;;;;;10230510;28;20055;-82
2023/03/12 10:20:09;;;;;;;1.55;1.40;;;;;;;;;;10233885;28;20066;-82
2023/03/12 10:25:20;;;;;;;1.55;1.33;;;;;;;;;;10215499;28;20063;-82
2023/03/12 10:30:26;;;;;;;1.80;1.30;;;;;;;;;;10220363;28;20055;-82
2023/03/12 10:35:31;;;;;;;1.63;1.27;;;;;;;;;;10195300;28;20044;-81
2023/03/12 10:40:37;;;;;;;1.45;1.02;;;;;;;;;;10194438;28;20048;-84
2023/03/12 10:45:44;;;;;;;;;;;;;;;;;;10212597;28;20489;-83
2023/03/12 10:51:03;;;;;;;3.83;1.50;;;;;;;;;;10194010;28;19922;-83
2023/03/12 10:56:09;;;;;;;1.20;0.95;;;;;;;;;;10193034;28;20376;-83
2023/03/12 11:01:20;;;;;;;3.13;1.65;;;;;;;;;;10188086;28;20067;-83
2023/03/12 11:06:28;;;;;;;1.45;1.13;;;;;;;;;;10210705;28;20050;-84
2023/03/12 11:11:33;;;;;;;2.30;1.30;;;;;;;;;;10187143;28;20039;-84
2023/03/12 11:16:36;;;;;;;3.83;2.28;;;;;;;;;;10186674;28;20055;-84
2023/03/12 11:21:56;;;;;;;2.65;1.45;;;;;;;;;;10117053;29;20484;-83
2023/03/12 11:27:05;;;;;;;5.78;2.47;;;;;;;;;;10120302;29;20063;-84
2023/03/12 11:32:17;;;;;;;5.22;3.08;;;;;;;;;;10133184;29;20055;-83
2023/03/12 11:37:30;;;;;;;5.97;3.00;;;;;;;;;;10104166;29;20052;-83
2023/03/12 11:42:46;;;;;;;3.20;2.03;;;;;;;;;;10127869;29;20046;-84
2023/03/12 11:48:03;;;;;;;5.32;2.67;;;;;;;;;;10152530;29;20048;-83
2023/03/12 11:53:39;;;;;;;3.13;1.80;;;;;;;;;;10160760;29;20060;-83
2023/03/12 11:58:56;;;;;;;5.50;2.67;;;;;;;;;;10099283;29;20040;-82
2023/03/12 12:04:22;;;;;;;5.35;2.50;;;;;;;;;;10088491;29;20061;-83
2023/03/12 12:09:35;;;;;;;3.87;2.10;;;;;;;;;;10102404;29;20048;-81
2023/03/12 12:14:52;;;;;;;5.45;2.28;;;;;;;;;;10094929;29;20277;-82
2023/03/12 12:20:20;;;;;;;3.90;1.88;;;;;;;;;;10119287;29;20049;-83
2023/03/12 12:25:49;;;;;;;3.65;2.15;;;;;;;;;;10145388;29;20063;-83
2023/03/12 12:31:12;;;;;;;4.63;2.03;;;;;;;;;;10182155;29;20040;-82
2023/03/12 12:36:16;;;;;;;4.03;2.20;;;;;;;;;;10137293;29;20104;-82
2023/03/12 12:41:24;;;;;;;3.05;1.80;;;;;;;;;;10149580;29;20048;-82
2023/03/12 12:46:32;;;;;;;3.53;2.03;;;;;;;;;;10195100;28;20035;-82
2023/03/12 12:51:39;;;;;;;3.60;1.70;;;;;;;;;;10192922;28;20047;-83
2023/03/12 12:56:48;;;;;;;3.35;1.10;;;;;;;;;;10174630;28;20054;-82
2023/03/12 13:01:54;;;;;;;7.75;2.63;;;;;;;;;;10191127;28;20048;-82
2023/03/12 13:07:01;;;;;;;4.63;1.80;;;;;;;;;;10197855;28;20043;-82
2023/03/12 13:12:18;;;;;;;3.53;1.70;;;;;;;;;;10180581;28;20422;-82
2023/03/12 13:17:26;;;;;;;5.65;1.85;;;;;;;;;;10179756;28;20081;-83
2023/03/12 13:22:59;;;;;;;5.97;1.90;;;;;;;;;;10212266;28;20043;-83
2023/03/12 13:28:31;;;;;;;5.72;1.98;;;;;;;;;;10218895;28;20048;-82
2023/03/12 13:33:41;;;;;;;5.20;2.00;;;;;;;;;;10216533;28;20058;-83
2023/03/12 13:38:54;;;;;;;5.22;1.80;;;;;;;;;;10199590;28;20055;-82
2023/03/12 13:44:00;;;;;;;9.73;2.38;;;;;;;;;;10176523;28;20075;-81
2023/03/12 13:49:12;;;;;;;7.93;2.57;;;;;;;;;;10174509;29;20051;-83
2023/03/12 13:54:18;;;;;;;10.43;2.63;;;;;;;;;;10140285;29;20044;-83
2023/03/12 13:59:26;;;;;;;6.72;2.53;;;;;;;;;;10143882;29;20415;-83
2023/03/12 14:04:34;;;;;;;6.63;2.70;;;;;;;;;;10142490;29;20054;-83
2023/03/12 14:09:47;;;;;;;8.60;3.78;;;;;;;;;;10149201;29;20069;-84
2023/03/12 14:15:08;;;;;;;13.70;3.33;;;;;;;;;;10131398;29;20108;-84
2023/03/12 14:20:16;;;;;;;7.60;2.80;;;;;;;;;;10152619;29;20056;-84
2023/03/12 14:25:33;;;;;;;7.47;2.08;;;;;;;;;;10156021;29;20051;-83
2023/03/12 14:30:46;;;;;;;8.80;2.40;;;;;;;;;;10175301;29;20048;-84
2023/03/12 14:35:54;;;;;;;10.00;2.15;;;;;;;;;;10152742;29;20114;-83
2023/03/12 14:41:03;;;;;;;7.20;2.20;;;;;;;;;;10167593;29;20040;-84
2023/03/12 14:46:17;;;;;;;8.38;2.28;;;;;;;;;;10202575;28;20446;-83
2023/03/12 14:51:22;;;;;;;10.40;2.67;;;;;;;;;;10192677;28;20035;-83
2023/03/12 14:56:31;;;;;;;9.73;2.92;;;;;;;;;;10201930;28;20059;-84
2023/03/12 15:01:38;;;;;;;6.05;2.15;;;;;;;;;;10204566;28;20044;-83
2023/03/12 15:06:46;;;;;;;7.57;1.98;;;;;;;;;;10211071;28;20080;-84
2023/03/12 15:11:54;;;;;;;7.25;2.30;;;;;;;;;;10201062;28;20039;-84
2023/03/12 15:16:59;;;;;;;5.13;1.85;;;;;;;;;;10202351;28;20514;-84
2023/03/12 15:22:04;;;;;;;6.05;2.20;;;;;;;;;;10201091;28;20043;-84
2023/03/12 15:27:31;;;;;;;5.60;1.85;;;;;;;;;;10194017;28;20055;-84
2023/03/12 15:32:36;;;;;;;9.05;2.80;;;;;;;;;;10208510;28;20120;-84
2023/03/12 15:37:39;;;;;;;10.00;2.80;;;;;;;;;;10199803;28;20433;-84
2023/03/12 15:42:46;;;;;;;11.30;2.55;;;;;;;;;;10187102;28;20047;-83
2023/03/12 15:47:51;;;;;;;5.88;2.45;;;;;;;;;;10181861;28;20048;-83
2023/03/12 15:53:00;;;;;;;10.18;2.65;;;;;;;;;;10191741;28;20059;-83
2023/03/12 15:58:25;;;;;;;7.03;2.03;;;;;;;;;;10195598;28;20478;-83
2023/03/12 16:03:29;;;;;;;12.00;4.38;;;;;;;;;;10183492;28;20055;-83
2023/03/12 16:08:39;;;;;;;13.63;4.95;;;;;;;;;;10209998;28;20044;-84
2023/03/12 16:13:43;;;;;;;15.68;5.45;;;;;;;;;;10184483;28;20039;-82
2023/03/12 16:18:48;;;;;;;9.98;3.50;;;;;;;;;;10187402;28;20054;-82
2023/03/12 16:23:52;;;;;;;14.85;3.90;;;;;;;;;;10193441;28;20039;-81
2023/03/12 16:28:55;;;;;;;9.35;3.40;;;;;;;;;;10179959;28;20353;-81
2023/03/12 16:34:00;;;;;;;12.18;4.07;;;;;;;;;;10198810;28;20070;-82
2023/03/12 16:39:04;;;;;;;10.18;3.92;;;;;;;;;;10203685;28;20050;-81
2023/03/12 16:44:09;;;;;;;16.27;3.65;;;;;;;;;;10192048;28;20322;-81
2023/03/12 16:49:16;;;;;;;13.13;4.97;;;;;;;;;;10221436;28;20066;-82
2023/03/12 16:54:20;;;;;;;17.63;3.63;;;;;;;;;;10216530;28;20047;-81
2023/03/12 16:59:26;;;;;;;14.30;3.47;;;;;;;;;;10209580;28;20528;-84
2023/03/12 17:04:30;;;;;;;12.98;3.55;;;;;;;;;;10200501;28;20047;-81
2023/03/12 17:09:34;;;;;;;14.73;4.32;;;;;;;;;;10203927;28;20043;-82
2023/03/12 17:14:38;;;;;;;13.93;3.88;;;;;;;;;;10199127;28;20052;-84
2023/03/12 17:19:43;;;;;;;10.40;2.80;;;;;;;;;;10214865;28;20400;-83
2023/03/12 17:24:47;;;;;;;17.40;3.92;;;;;;;;;;10207151;28;20130;-84
2023/03/12 17:29:50;;;;;;;13.85;3.90;;;;;;;;;;10210730;28;20506;-84
2023/03/12 17:35:01;;;;;;;17.67;4.20;;;;;;;;;;10188847;28;20055;-83
2023/03/12 17:40:08;;;;;;;14.90;4.43;;;;;;;;;;10196777;28;20118;-81
2023/03/12 17:45:12;;;;;;;11.68;3.28;;;;;;;;;;10206194;28;20388;-82
2023/03/12 17:50:17;;;;;;;8.93;2.47;;;;;;;;;;10190358;28;20236;-82
2023/03/12 17:55:20;;;;;;;17.02;4.07;;;;;;;;;;10190836;28;20705;-82
2023/03/12 18:00:24;;;;;;;13.05;3.47;;;;;;;;;;10209629;28;20058;-82
2023/03/12 18:05:29;;;;;;;12.60;3.83;;;;;;;;;;10199001;28;20062;-82
2023/03/12 18:10:32;;;;;;;14.18;4.18;;;;;;;;;;10203559;28;20082;-81
2023/03/12 18:15:36;;;;;;;14.85;4.80;;;;;;;;;;10193176;28;20050;-82
2023/03/12 18:20:43;;;;;;;16.38;5.30;;;;;;;;;;10214716;28;20048;-82
2023/03/12 18:25:46;;;;;;;16.10;6.38;;;;;;;;;;10204548;28;20048;-82
2023/03/12 18:30:49;;;;;;;18.13;5.45;;;;;;;;;;10208234;28;20161;-80
2023/03/12 18:35:54;;;;;;;14.52;4.45;;;;;;;;;;10208020;28;20068;-80
2023/03/12 18:41:03;;;;;;;20.60;6.13;;;;;;;;;;10218207;28;20102;-80
2023/03/12 18:46:08;;;;;;;18.42;5.53;;;;;;;;;;10195438;28;20047;-83
2023/03/12 18:51:12;;;;;;;13.40;4.28;;;;;;;;;;10217410;28;20035;-84
2023/03/12 18:56:18;;;;;;;14.52;5.20;;;;;;;;;;10207309;28;20039;-83
2023/03/12 19:01:21;;;;;;;14.82;4.10;;;;;;;;;;10199162;28;20046;-83
2023/03/12 19:06:26;;;;;;;14.65;5.00;;;;;;;;;;10194318;28;20430;-83
2023/03/12 19:11:31;;;;;;;15.57;3.90;;;;;;;;;;10199054;28;20040;-83
2023/03/12 19:16:35;;;;;;;9.00;3.20;;;;;;;;;;10180804;28;20130;-83
2023/03/12 19:21:40;;;;;;;10.55;3.53;;;;;;;;;;10180575;28;20134;-83
2023/03/12 19:26:43;;;;;;;8.02;3.13;;;;;;;;;;10202847;28;20047;-83
2023/03/12 19:31:49;;;;;;;6.55;2.75;;;;;;;;;;10190288;28;20130;-83
2023/03/12 19:36:54;;;;;;;7.22;2.83;;;;;;;;;;10196080;28;20492;-83
2023/03/12 19:41:58;;;;;;;12.13;3.83;;;;;;;;;;10184065;28;20043;-83
2023/03/12 19:47:04;;;;;;;8.52;3.53;;;;;;;;;;10196510;28;20634;-83
2023/03/12 19:52:09;;;;;;;6.40;3.08;;;;;;;;;;10189217;28;20055;-82
2023/03/12 19:57:12;;;;;;;8.60;2.47;;;;;;;;;;10181841;28;20050;-82
2023/03/12 20:02:16;;;;;;;8.35;2.47;;;;;;;;;;10302463;23;20044;-85
2023/03/12 20:07:21;;;;;;;5.82;2.53;;;;;;;;;;10239106;28;20414;-85
2023/03/12 20:12:25;;;;;;;6.03;1.80;;;;;;;;;;10226807;28;20044;-86
2023/03/12 20:17:32;;;;;;;5.15;2.03;;;;;;;;;;10197489;28;20044;-86
2023/03/12 20:22:36;;;;;;;7.35;2.40;;;;;;;;;;10219076;28;20636;-86
2023/03/12 20:27:40;;;;;;;6.32;1.58;;;;;;;;;;10215220;28;20047;-86
2023/03/12 20:32:44;;;;;;;3.95;1.48;;;;;;;;;;10209890;28;20044;-86
2023/03/12 20:37:49;;;;;;;6.93;2.95;;;;;;;;;;10190783;28;20190;-86
2023/03/12 20:42:53;;;;;;;8.20;2.63;;;;;;;;;;10195482;28;20039;-86
2023/03/12 20:47:57;;;;;;;5.70;1.83;;;;;;;;;;10215325;28;20070;-86
2023/03/12 20:53:02;;;;;;;5.70;1.92;;;;;;;;;;10199102;28;20139;-86
2023/03/12 20:58:06;;;;;;;5.55;1.60;;;;;;;;;;10199029;28;20052;-86
2023/03/12 21:03:12;;;;;;;4.45;1.40;;;;;;;;;;10191423;28;20052;-86
2023/03/12 21:08:20;;;;;;;2.90;1.30;;;;;;;;;;10206131;28;20525;-86
2023/03/12 21:13:25;;;;;;;5.72;1.67;;;;;;;;;;10228724;28;20073;-84
2023/03/12 21:18:29;;;;;;;6.80;2.50;;;;;;;;;;10217616;28;20070;-84
2023/03/12 21:23:34;;;;;;;4.18;1.50;;;;;;;;;;10199032;28;20043;-86
2023/03/12 21:28:41;;;;;;;2.90;1.20;;;;;;;;;;10209875;28;20043;-87
2023/03/12 21:33:44;;;;;;;4.90;1.52;;;;;;;;;;10187544;28;20040;-86
2023/03/12 21:38:50;;;;;;;5.22;1.50;;;;;;;;;;10175662;28;20120;-86
2023/03/12 21:43:54;;;;;;;4.50;1.65;;;;;;;;;;10202046;28;20063;-86
2023/03/12 21:48:58;;;;;;;3.78;1.20;;;;;;;;;;10178288;28;20044;-86
2023/03/12 21:54:07;;;;;;;5.00;1.53;;;;;;;;;;10179831;28;20043;-86
2023/03/12 21:59:10;;;;;;;4.00;1.65;;;;;;;;;;10197470;28;20291;-84
2023/03/12 22:04:15;;;;;;;5.50;1.63;;;;;;;;;;10186974;28;20047;-85
2023/03/12 22:09:21;;;;;;;6.13;1.42;;;;;;;;;;10205421;28;20077;-85
2023/03/12 22:14:25;;;;;;;3.13;1.13;;;;;;;;;;10181741;28;20384;-84
2023/03/12 22:19:28;;;;;;;5.03;1.10;;;;;;;;;;10208093;28;20058;-84
2023/03/12 22:24:33;;;;;;;3.78;1.10;;;;;;;;;;10178748;28;20617;-86
2023/03/12 22:29:37;;;;;;;3.88;0.90;;;;;;;;;;10193175;28;20077;-85
2023/03/12 22:34:42;;;;;;;5.55;1.20;;;;;;;;;;10196553;28;20048;-86
2023/03/12 22:39:47;;;;;;;4.53;1.52;;;;;;;;;;10180799;28;20047;-86
2023/03/12 22:44:50;;;;;;;5.95;1.80;;;;;;;;;;10183420;28;20040;-83
2023/03/12 22:49:57;;;;;;;4.68;1.52;;;;;;;;;;10191430;28;20098;-83
2023/03/12 22:55:01;;;;;;;7.50;1.58;;;;;;;;;;10196454;28;20059;-84
2023/03/12 23:00:09;;;;;;;3.72;1.25;;;;;;;;;;10194552;28;20052;-86
2023/03/12 23:05:12;;;;;;;13.23;2.63;;;;;;;;;;10186262;28;20043;-85
2023/03/12 23:10:17;;;;;;;5.47;1.90;;;;;;;;;;10185141;28;20048;-85
2023/03/12 23:15:23;;;;;;;5.03;1.48;;;;;;;;;;10213803;28;20071;-84
2023/03/12 23:20:31;;;;;;;9.38;1.80;;;;;;;;;;10207243;28;20051;-85
2023/03/12 23:25:36;;;;;;;6.85;2.10;;;;;;;;;;10201534;28;20155;-85
2023/03/12 23:30:41;;;;;;;4.70;1.30;;;;;;;;;;10186595;28;20320;-84
2023/03/12 23:35:53;;;;;;;5.05;1.65;;;;;;;;;;10183017;28;20044;-84
2023/03/12 23:41:01;;;;;;;3.85;1.13;;;;;;;;;;10205676;28;20151;-84
2023/03/12 23:46:07;;;;;;;6.28;1.60;;;;;;;;;;10200288;28;20104;-84
2023/03/12 23:51:12;;;;;;;3.58;1.50;;;;;;;;;;10206042;28;20138;-84
2023/03/12 23:56:18;;;;;;;5.50;1.20;;;;;;;;;;10187682;28;20043;-84
